Alpine Village, Colorado
Current Conditions -  °F | °C
As of 5:54 PM on Saturday 22 Nov 2014 (Local Time) from K7BM Reporting Station
Light Snow Light Snow  
Wind Chill: 22°   Ceiling: 1400
Heat Index: 34°   Visibility: 3mi
Dew Point: 23°   Wind: 21mph
Humidity: 65%   Direction: 290°WNW
Pressure: 29.85"   Gusts: 37mph
Location:  38.7194°N, 106.276°W
Report Text: K7BM 230054Z AUTO 29018G32KT 3SM -SN BKN014 BKN029 OVC075 01/M05 A2985 RMK AO2
Loading
Personal Weather Stations






























Interactive Weather Map New forecast layout! Learn more

10-Day Weather Forecast

Advertisements
Track Severe Weather on mobile